Terminal Aerodrome Forecast
Issued by NWS Blacksburg, VA

Home | Current Version | Previous Version | Text Only | Print | Product List | Glossary On
Versions: 1 2 3 4 5 6 7 8 9 10 11 12 13 14 15 16 17 18 19 20 21 22 23 24 25 26 27 28 29 30 31 32 33 34 35
000
FTUS41 KRNK 012330
TAFDAN
TAF
KDAN 012330Z 0200/0224 20003KT 4SM BR OVC003
     FM020600 23004KT 1SM BR OVC003
     FM021200 25003KT 4SM BR OVC011
     FM021400 27005KT P6SM SCT015 OVC050
     FM021600 30008G16KT P6SM BKN070
     FM022100 34007KT P6SM SCT100 BKN250=

USA.gov is the U.S. government's official web portal to all federal, state and local government web resources and services.